Terminal Aerodrome Forecast
Issued by NWS Charleston, WV

Current Version | Previous Version | Text Only | Print | Product List | Glossary Off
Versions: 1 2 3 4 5 6 7 8 9 10 11 12 13 14 15 16 17 18 19 20 21

584
FTUS41 KRLX 290216 AAA
TAFPKB
TAF AMD
KPKB 290216Z 2902/2924 00000KT 6SM BR BKN035
      TEMPO 2902/2903 3SM -TSRA BKN030CB
     FM290600 00000KT 4SM BR BKN020
     FM291000 VRB03KT 4SM BR OVC010
     FM291500 28005KT 6SM HZ BKN025
     FM291800 31006KT P6SM BKN045
     FM292200 33007KT P6SM SCT050=

USA.gov is the U.S. government's official web portal to all federal, state and local government web resources and services.